• Join FlightAware (Why Join?)
  • Login
  • US Flag 
03:59PM EDT


 

Airport Tracker/Info


-or-


 

Live Flight TrackerFlight Track Log ✈ ASA137 ✈ 30-Jan-2014 ✈ KPDX - PANC

Flight Track Log - Related Links

Times and Time Zones

All times are in EST time to prevent confusion due to time zone crossing. See the ASA137 flight status page for this flight to view local times or setup timezone preferences in your user account.

Time Position Orientation Groundspeed Altitude Reporting Facility
EST Latitude Longitude Course Direction KTS MPH feet Rate Location/Type
11:06PM 45.5942 -122.6194 302° West 167 192 600  Level Seattle Center
11:07PM 45.6022 -122.6378 302° West 167 192 1,300 2,040 Climbing Seattle Center
11:08PM 45.6336 -122.7083 302° West 212 244 3,300 2,100 Climbing Seattle Center
11:08PM 45.6492 -122.7481 299° West 219 252 4,700 2,400 Climbing Seattle Center
11:09PM 45.6744 -122.7719 327° Northwest 250 288 5,700 2,460 Climbing Seattle Center
11:09PM 45.7117 -122.7822 349° North 254 292 7,200 2,640 Climbing Seattle Center
11:10PM 45.7908 -122.7983 352° North 266 306 10,000 2,280 Climbing Seattle Center
11:11PM 45.8689 -122.8167 351° North 284 327 11,900 1,860 Climbing Seattle Center
11:12PM 45.9572 -122.8494 346° North 327 376 13,900 2,100 Climbing Seattle Center
11:13PM 46.0428 -122.9131 333° Northwest 348 400 16,200 2,400 Climbing Seattle Center
11:14PM 46.1294 -122.9739 334° Northwest 357 411 18,800 2,280 Climbing Seattle Center
11:15PM 46.2217 -123.0425 333° Northwest 356 410 20,900 1,920 Climbing Seattle Center
11:16PM 46.3175 -123.1103 334° Northwest 373 429 22,700 1,800 Climbing Seattle Center
11:17PM 46.4111 -123.1806 333° Northwest 393 452 24,600 1,740 Climbing Seattle Center
11:19PM 46.5189 -123.2608 333° Northwest 407 468 26,300 1,560 Climbing Seattle Center
11:20PM 46.6225 -123.3386 333° Northwest 418 481 27,800 1,500 Climbing Seattle Center
11:21PM 46.7289 -123.4175 333° Northwest 426 490 29,400 1,380 Climbing Seattle Center
11:22PM 46.8367 -123.4964 333° Northwest 431 496 30,700 1,440 Climbing Seattle Center
11:23PM 46.9453 -123.5786 333° Northwest 436 502 32,400 1,560 Climbing Seattle Center
11:24PM 47.0458 -123.6706 328° Northwest 427 491 33,900 1,140 Climbing Seattle Center
11:25PM 47.1400 -123.7744 323° Northwest 423 487 34,800 840 Climbing Seattle Center
11:26PM 47.2369 -123.8786 324° Northwest 429 494 35,600 540 Climbing Seattle Center
11:27PM 47.3317 -123.9811 324° Northwest 434 499 36,000 180 Climbing Seattle Center
11:28PM 47.4275 -124.0875 323° Northwest 433 498 36,000  Level Seattle Center
11:29PM 47.5225 -124.1925 323° Northwest 429 494 36,000  Level Seattle Center
11:30PM 47.6175 -124.2975 323° Northwest 426 490 36,000  Level Seattle Center
11:31PM 47.7122 -124.4028 323° Northwest 426 490 36,000  Level Seattle Center
11:32PM 47.8075 -124.5078 324° Northwest 427 491 36,000  Level Seattle Center
11:33PM 47.9019 -124.6139 323° Northwest 424 488 36,000  Level Seattle Center
11:34PM 47.9972 -124.7222 323° Northwest 428 493 36,000  Level Seattle Center
11:35PM 48.0928 -124.8306 323° Northwest 429 494 36,000  Level Seattle Center
11:35PM 48.1667 -124.9333 317° Northwest 430 495 36,000  Level Vancouver Center
11:36PM 48.2667 -125.0333 326° Northwest 440 506 36,000  Level Vancouver Center
11:37PM 48.3500 -125.1500 317° Northwest 430 495 36,000  Level Vancouver Center
11:38PM 48.4500 -125.2667 322° Northwest 440 506 36,000  Level Vancouver Center
11:39PM 48.5500 -125.3667 327° Northwest 440 506 36,000  Level Vancouver Center
11:40PM 48.6500 -125.5000 319° Northwest 440 506 36,000  Level Vancouver Center
11:41PM 48.7333 -125.6000 322° Northwest 440 506 36,000  Level Vancouver Center
11:42PM 48.8333 -125.7333 319° Northwest 430 495 36,000  Level Vancouver Center
11:43PM 48.9333 -125.8333 327° Northwest 430 495 36,000  Level Vancouver Center
11:44PM 49.0167 -125.9333 322° Northwest 440 506 36,000  Level Vancouver Center
11:45PM 49.1167 -126.0667 319° Northwest 440 506 36,000  Level Vancouver Center
11:46PM 49.2167 -126.1833 323° Northwest 440 506 36,000  Level Vancouver Center
11:47PM 49.3167 -126.2833 327° Northwest 440 506 36,000  Level Vancouver Center
11:48PM 49.4167 -126.4167 319° Northwest 440 506 36,000  Level Vancouver Center
11:49PM 49.5000 -126.5167 322° Northwest 430 495 36,000  Level Vancouver Center
11:50PM 49.6000 -126.6333 323° Northwest 430 495 36,000  Level Vancouver Center
11:51PM 49.6833 -126.7667 314° West 440 506 36,000  Level Vancouver Center
11:52PM 49.8000 -126.8833 327° Northwest 440 506 36,000  Level Vancouver Center
11:53PM 49.8833 -126.9833 322° Northwest 440 506 36,000  Level Vancouver Center
11:54PM 49.9833 -127.1167 319° Northwest 440 506 36,000  Level Vancouver Center
11:55PM 50.0667 -127.2333 318° Northwest 440 506 36,000 240 Level Vancouver Center
11:56PM 50.1667 -127.3500 323° Northwest 450 518 36,500 960 Climbing Vancouver Center
11:57PM 50.2667 -127.4833 320° Northwest 440 506 38,000 720 Climbing Vancouver Center
11:58PM 50.3667 -127.6000 323° Northwest 430 495 38,000  Level Vancouver Center
11:59PM 50.4500 -127.7000 323° Northwest 420 483 38,000  Level Vancouver Center
12:00AM 50.5333 -127.8167 318° Northwest 420 483 38,000  Level Vancouver Center
12:01AM 50.6333 -127.9333 324° Northwest 420 483 38,000  Level Vancouver Center
12:02AM 50.7167 -128.0667 315° West 410 472 38,000  Level Vancouver Center
12:03AM 50.8167 -128.1833 324° Northwest 420 483 38,000  Level Vancouver Center
12:04AM 50.8833 -128.3000 312° West 420 483 38,000  Level Vancouver Center
12:05AM 50.9833 -128.4167 324° Northwest 420 483 38,000  Level Vancouver Center
12:06AM 51.0833 -128.5333 324° Northwest 430 495 38,000  Level Vancouver Center
12:07AM 51.1667 -128.6667 315° West 430 495 38,000  Level Vancouver Center
12:08AM 51.2500 -128.7833 319° Northwest 430 495 38,000  Level Vancouver Center
12:09AM 51.3500 -128.9000 324° Northwest 430 495 38,000  Level Vancouver Center
12:10AM 51.4500 -129.0167 324° Northwest 430 495 38,000  Level Vancouver Center
12:11AM 51.5333 -129.1667 312° West 430 495 38,000  Level Vancouver Center
12:12AM 51.6167 -129.2833 319° Northwest 420 483 38,000  Level Vancouver Center
12:13AM 51.7167 -129.4000 324° Northwest 420 483 38,000  Level Vancouver Center
12:14AM 51.8000 -129.5333 315° West 420 483 38,000  Level Vancouver Center
12:15AM 51.8833 -129.6500 319° Northwest 420 483 38,000  Level Vancouver Center
12:16AM 51.9833 -129.8000 317° Northwest 420 483 38,000  Level Vancouver Center
12:17AM 52.0667 -129.9167 319° Northwest 420 483 38,000  Level Vancouver Center
12:18AM 52.1500 -130.0333 319° Northwest 420 483 38,000  Level Vancouver Center
12:19AM 52.2500 -130.1500 324° Northwest 420 483 38,000  Level Vancouver Center
12:20AM 52.3333 -130.2833 316° Northwest 430 495 38,000  Level Vancouver Center
12:21AM 52.4167 -130.4000 320° Northwest 430 495 38,000  Level Vancouver Center
12:22AM 52.5000 -130.5500 312° West 430 495 38,000  Level Vancouver Center
12:23AM 52.6000 -130.6833 321° Northwest 430 495 38,000  Level Vancouver Center
12:24AM 52.6833 -130.8000 320° Northwest 420 483 38,000  Level Vancouver Center
12:25AM 52.7667 -130.9167 320° Northwest 420 483 38,000  Level Vancouver Center
12:26AM 52.8667 -131.0500 321° Northwest 420 483 38,000  Level Vancouver Center
12:27AM 52.9333 -131.2000 306° West 420 483 38,000  Level Vancouver Center
12:28AM 53.0333 -131.3333 321° Northwest 420 483 38,000  Level Vancouver Center
12:29AM 53.1167 -131.4500 320° Northwest 420 483 38,000  Level Vancouver Center
12:30AM 53.2000 -131.5833 316° Northwest 420 483 38,000  Level Vancouver Center
12:31AM 53.2833 -131.7167 316° Northwest 420 483 38,000  Level Vancouver Center
12:35AM 53.6333 -132.2500 318° Northwest 420 483 38,000  Level Vancouver Center
12:36AM 53.7167 -132.3833 317° Northwest 430 495 38,000  Level Vancouver Center
12:37AM 53.8000 -132.5500 310° West 430 495 38,000  Level Vancouver Center
12:38AM 53.9000 -132.6833 322° Northwest 430 495 38,000  Level Vancouver Center
12:39AM 53.9833 -132.8167 317° Northwest 440 506 38,000  Level Vancouver Center
12:40AM 54.0667 -132.9667 313° West 440 506 38,000  Level Vancouver Center
12:50AM 54.9333 -134.4167 315° West 440 506 38,000  Level Vancouver Center
12:51AM 54.8825 -134.2782 316° Northwest  Level FlightAware Approximate
12:51AM 55.0333 -134.5667 319° Northwest 440 506 38,000  Level Vancouver Center
12:52AM 54.9643 -134.4189 315° West  Level FlightAware Approximate
12:52AM 55.1000 -134.7333 305° West 440 506 38,000  Level Vancouver Center
12:53AM 55.0461 -134.5602 315° West  Level FlightAware Approximate
12:53AM 55.2167 -134.8667 327° Northwest 440 506 38,000  Level Vancouver Center
12:54AM 55.1276 -134.7021 315° West  Level FlightAware Approximate
12:54AM 55.2833 -135.0167 308° West 440 506 38,000  Level Vancouver Center
12:55AM 55.2090 -134.8445 315° West  Level FlightAware Approximate
12:55AM 55.3167 -135.0333 344° North 440 506 38,000  Level Anchorage Center
12:56AM 55.2902 -134.9875 315° West  Level FlightAware Approximate
12:56AM 55.4167 -135.1833 320° Northwest 440 506 38,000  Level Anchorage Center
12:56AM 55.4500 -135.3333 291° West 440 506 38,000  Level Vancouver Center
12:57AM 55.5500 -135.4667 323° Northwest 440 506 38,000  Level Vancouver Center
12:58AM 55.6167 -135.6333 305° West 440 506 38,000  Level Vancouver Center
12:59AM 55.7167 -135.7833 320° Northwest 440 506 38,000  Level Vancouver Center
01:00AM 55.7833 -135.9333 308° West 430 495 38,000  Level Vancouver Center
01:02AM 55.9167 -136.1000 325° Northwest 430 495 38,000  Level Anchorage Center
01:03AM 56.0000 -136.2667 312° West 430 495 38,000  Level Anchorage Center
01:04AM 56.0833 -136.4167 315° West 430 495 38,000  Level Anchorage Center
01:05AM 56.1667 -136.5833 312° West 440 506 38,000  Level Anchorage Center
01:06AM 56.2500 -136.7333 315° West 440 506 38,000  Level Anchorage Center
01:08AM 56.4167 -137.0667 312° West 440 506 38,000  Level Anchorage Center
01:09AM 56.5000 -137.2167 315° West 440 506 38,000  Level Anchorage Center
01:10AM 56.5833 -137.3833 312° West 440 506 38,000  Level Anchorage Center
01:11AM 56.6667 -137.5500 312° West 440 506 38,000  Level Anchorage Center
01:12AM 56.7500 -137.7167 312° West 440 506 38,000  Level Anchorage Center
01:13AM 56.8333 -137.8833 312° West 440 506 38,000  Level Anchorage Center
01:14AM 56.9167 -138.0500 313° West 430 495 38,000  Level Anchorage Center
01:15AM 57.0000 -138.2167 313° West 420 483 38,000  Level Anchorage Center
01:16AM 57.0833 -138.3833 313° West 440 506 38,000  Level Anchorage Center
01:17AM 57.1667 -138.5500 313° West 440 506 38,000  Level Anchorage Center
01:18AM 57.2500 -138.7167 313° West 450 518 38,000  Level Anchorage Center
01:19AM 57.3333 -138.8833 313° West 440 506 38,000  Level Anchorage Center
01:20AM 57.4167 -139.0500 313° West 440 506 38,000  Level Anchorage Center
01:21AM 57.5000 -139.2167 313° West 450 518 38,000  Level Anchorage Center
01:22AM 57.5667 -139.3833 307° West 440 506 38,000  Level Anchorage Center
01:23AM 57.6500 -139.5500 313° West 440 506 38,000  Level Anchorage Center
01:24AM 57.7333 -139.7333 310° West 440 506 38,000  Level Anchorage Center
01:25AM 57.8000 -139.9000 307° West 430 495 38,000  Level Anchorage Center
01:26AM 57.8833 -140.0833 311° West 440 506 38,000  Level Anchorage Center
01:27AM 57.9667 -140.2500 313° West 440 506 38,000  Level Anchorage Center
01:28AM 58.0500 -140.4167 313° West 440 506 38,000  Level Anchorage Center
01:29AM 58.1167 -140.6000 305° West 440 506 38,000  Level Anchorage Center
01:30AM 58.2000 -140.7833 311° West 430 495 38,000  Level Anchorage Center
01:31AM 58.2833 -140.9667 311° West 440 506 38,000  Level Anchorage Center
01:32AM 58.3500 -141.1500 305° West 430 495 38,000  Level Anchorage Center
01:33AM 58.4167 -141.3500 303° West 440 506 38,000  Level Anchorage Center
01:34AM 58.5000 -141.5333 311° West 440 506 38,000  Level Anchorage Center
01:35AM 58.5667 -141.7333 303° West 440 506 38,000  Level Anchorage Center
01:36AM 58.6333 -141.9333 303° West 440 506 38,000  Level Anchorage Center
01:37AM 58.7000 -142.1333 303° West 440 506 38,000  Level Anchorage Center
01:38AM 58.7833 -142.3167 311° West 440 506 38,000  Level Anchorage Center
01:39AM 58.8500 -142.5167 303° West 430 495 38,000  Level Anchorage Center
01:40AM 58.9167 -142.7167 303° West 440 506 38,000  Level Anchorage Center
01:41AM 58.9833 -142.9167 303° West 430 495 38,000  Level Anchorage Center
01:42AM 59.0500 -143.1000 305° West 430 495 38,000  Level Anchorage Center
01:43AM 59.1167 -143.3167 301° West 430 495 38,000  Level Anchorage Center
01:44AM 59.1833 -143.5167 303° West 440 506 38,000  Level Anchorage Center
01:45AM 59.2500 -143.7167 303° West 440 506 38,000  Level Anchorage Center
01:46AM 59.3167 -143.9167 303° West 440 506 38,000  Level Anchorage Center
01:47AM 59.3833 -144.1167 303° West 430 495 38,000  Level Anchorage Center
01:48AM 59.4500 -144.3167 303° West 440 506 38,000  Level Anchorage Center
01:49AM 59.5167 -144.5167 303° West 440 506 38,000  Level Anchorage Center
01:50AM 59.5833 -144.7333 301° West 440 506 38,000  Level Anchorage Center
01:51AM 59.6500 -144.9333 303° West 440 506 38,000  Level Anchorage Center
01:52AM 59.7167 -145.1333 304° West 440 506 38,000  Level Anchorage Center
01:53AM 59.7833 -145.3333 304° West 430 495 38,000  Level Anchorage Center
01:54AM 59.8333 -145.5500 295° West 440 506 38,000  Level Anchorage Center
01:55AM 59.9167 -145.8000 304° West 440 506 38,000  Level Anchorage Center
01:56AM 59.9833 -146.0000 304° West 440 506 38,000  Level Anchorage Center
01:57AM 60.0333 -146.2167 295° West 440 506 38,000  Level Anchorage Center
01:58AM 60.1000 -146.4333 302° West 440 506 38,000  Level Anchorage Center
01:59AM 60.1667 -146.6333 304° West 440 506 38,000  Level Anchorage Center
02:00AM 60.2333 -146.8500 302° West 440 506 38,000  Level Anchorage Center
02:01AM 60.2833 -147.0667 295° West 440 506 38,000  Level Anchorage Center
02:02AM 60.3500 -147.2833 302° West 440 506 38,000 -1,080 Level Anchorage Center
02:03AM 60.4167 -147.5000 302° West 430 495 35,900 -2,580 Descending Anchorage Center
02:08AM 60.7000 -148.5167 287° West 390 449 22,600 -2,640 Descending Anchorage Center
02:09AM 60.7500 -148.7167 297° West 370 426 20,300 -2,340 Descending Anchorage Center
02:11AM 60.8167 -148.9633 299° West  Level FlightAware Approximate
02:12AM 60.6210 -147.5253 289° West  Level FlightAware Approximate
02:13AM 60.6560 -147.7480 287° West  Level FlightAware Approximate
02:18AM 61.1741 -149.9982 65° Northeast  Level Estimated
02:19AM 61.1741 -149.9982 65° Northeast  Level Estimated
02:20AM 61.1741 -149.9982 65° Northeast  Level Estimated
02:21AM 61.1741 -149.9982 65° Northeast  Level Estimated
02:22AM 61.1741 -149.9982 65° Northeast  Level Estimated
02:23AM 61.1741 -149.9982 65° Northeast  Level Estimated
02:24AM 61.1741 -149.9982 65° Northeast  Level Estimated
02:25AM 61.1741 -149.9982 65° Northeast  Level Estimated
02:26AM 61.1741 -149.9982 65° Northeast  Level Estimated
02:27AM 61.1741 -149.9982 65° Northeast  Level Estimated
02:28AM 61.1741 -149.9982 65° Northeast  Level Estimated
02:29AM 61.1741 -149.9982 65° Northeast  Level Estimated
02:30AM 61.1741 -149.9982 65° Northeast  Level Estimated
02:31AM 61.1741 -149.9982 65° Northeast  Level Estimated
02:32AM 61.1741 -149.9982 65° Northeast  Level Estimated
02:33AM 61.1741 -149.9982 65° Northeast  Level Estimated